Time;durP1;ratioP1;P1;durP2;ratioP2;P2;SDS_P1;SDS_P2;PMS_P1;PMS_P2;Temp;Humidity;BMP_temperature;BMP_pressure;BME280_temperature;BME280_humidity;BME280_pressure;Samples;Min_cycle;Max_cycle;Signal;HPM_P1;HPM_P2
2024/04/14 00:00:25;;;;;;;2.78;1.35;;;18.30;98.90;;;;;;4484670;26;20038;-64
2024/04/14 00:02:25;;;;;;;1.42;1.00;;;18.30;98.00;;;;;;4480662;26;20003;-64
2024/04/14 00:04:26;;;;;;;3.88;1.05;;;18.20;99.00;;;;;;4467654;26;20036;-64
2024/04/14 00:06:26;;;;;;;3.47;1.00;;;18.10;98.90;;;;;;4476615;26;20035;-65
2024/04/14 00:08:27;;;;;;;1.00;0.65;;;18.10;98.60;;;;;;4474493;26;20460;-65
2024/04/14 00:10:28;;;;;;;3.47;1.15;;;18.10;99.00;;;;;;4478004;26;20053;-64
2024/04/14 00:12:29;;;;;;;2.42;0.90;;;18.10;99.40;;;;;;4477705;26;20520;-65
2024/04/14 00:14:29;;;;;;;1.83;0.93;;;18.00;98.50;;;;;;4478605;26;20003;-65
2024/04/14 00:16:30;;;;;;;1.67;0.80;;;18.00;99.90;;;;;;4440123;26;20073;-64
2024/04/14 00:18:31;;;;;;;3.00;1.17;;;17.90;99.00;;;;;;4478900;26;20011;-62
2024/04/14 00:20:32;;;;;;;1.75;1.10;;;17.90;99.60;;;;;;4477009;26;20012;-64
2024/04/14 00:22:32;;;;;;;4.75;1.08;;;17.90;98.90;;;;;;4446177;26;20015;-63
2024/04/14 00:24:33;;;;;;;3.30;0.90;;;17.90;99.90;;;;;;4478408;26;20012;-63
2024/04/14 00:26:34;;;;;;;1.88;0.98;;;17.80;99.90;;;;;;4445360;26;20022;-63
2024/04/14 00:28:34;;;;;;;2.97;1.38;;;17.80;99.90;;;;;;4484425;26;20453;-66
2024/04/14 00:30:35;;;;;;;1.00;0.73;;;17.80;99.90;;;;;;4477514;26;20011;-67
2024/04/14 00:32:36;;;;;;;1.63;0.80;;;17.80;99.90;;;;;;4419111;26;20013;-67
2024/04/14 00:34:37;;;;;;;1.20;0.70;;;17.80;99.90;;;;;;4476870;26;20004;-67
2024/04/14 00:36:38;;;;;;;1.88;0.80;;;17.80;99.40;;;;;;4477765;26;20023;-67
2024/04/14 00:38:39;;;;;;;1.92;1.02;;;17.80;99.80;;;;;;4434079;26;20016;-67
2024/04/14 00:40:39;;;;;;;1.73;0.80;;;17.80;99.90;;;;;;4470720;26;20007;-67
2024/04/14 00:42:40;;;;;;;3.28;1.27;;;17.70;99.90;;;;;;4485301;26;20336;-67
2024/04/14 00:44:41;;;;;;;2.40;0.98;;;17.70;99.90;;;;;;4443929;26;20008;-67
2024/04/14 00:46:42;;;;;;;1.95;0.93;;;17.70;99.50;;;;;;4469019;26;20019;-68
2024/04/14 00:48:43;;;;;;;2.55;0.98;;;17.60;99.20;;;;;;4444053;26;20004;-67
2024/04/14 00:50:46;;;;;;;2.05;0.82;;;17.60;99.80;;;;;;4445994;26;20023;-66
2024/04/14 00:52:48;;;;;;;1.63;0.90;;;17.60;99.90;;;;;;4443221;26;20008;-67
2024/04/14 00:54:49;;;;;;;2.80;0.90;;;17.60;99.90;;;;;;4462870;26;20352;-67
2024/04/14 00:56:50;;;;;;;1.75;0.90;;;17.60;99.90;;;;;;4481822;26;20008;-67
2024/04/14 00:58:51;;;;;;;1.90;1.00;;;17.60;99.90;;;;;;4483498;26;20012;-67
2024/04/14 01:00:52;;;;;;;2.25;0.98;;;17.50;99.90;;;;;;4414840;26;20345;-67
2024/04/14 01:02:55;;;;;;;2.70;1.13;;;17.50;99.90;;;;;;4447589;26;20020;-67
2024/04/14 01:04:55;;;;;;;2.53;1.15;;;17.40;99.90;;;;;;4447451;26;20000;-67
2024/04/14 01:06:57;;;;;;;1.27;0.93;;;17.40;99.90;;;;;;4434477;26;20009;-67
2024/04/14 01:08:58;;;;;;;2.00;1.10;;;17.40;99.90;;;;;;4473523;26;20003;-66
2024/04/14 01:10:59;;;;;;;2.15;0.90;;;17.40;99.90;;;;;;4464656;26;20030;-67
2024/04/14 01:13:00;;;;;;;2.45;1.13;;;17.40;99.90;;;;;;4479123;26;20018;-66
2024/04/14 01:15:01;;;;;;;4.25;1.30;;;17.40;99.90;;;;;;4456111;26;20111;-67
2024/04/14 01:17:02;;;;;;;0.85;0.73;;;17.30;99.90;;;;;;4471972;26;20480;-67
2024/04/14 01:19:04;;;;;;;2.45;1.10;;;17.20;99.90;;;;;;4449648;26;20397;-66
2024/04/14 01:21:05;;;;;;;2.60;1.23;;;17.20;99.90;;;;;;4451433;26;20085;-66
2024/04/14 01:23:06;;;;;;;3.33;1.20;;;17.10;99.90;;;;;;4466496;26;20026;-67
2024/04/14 01:25:07;;;;;;;2.60;0.75;;;17.10;99.90;;;;;;4452157;26;20008;-67
2024/04/14 01:27:08;;;;;;;1.10;0.90;;;17.10;99.90;;;;;;4476094;26;20019;-67
2024/04/14 01:29:08;;;;;;;2.28;1.23;;;17.10;99.90;;;;;;4475619;26;20440;-67
2024/04/14 01:31:09;;;;;;;1.80;1.08;;;17.10;99.90;;;;;;4477579;26;20015;-67
2024/04/14 01:33:10;;;;;;;1.27;0.80;;;17.10;99.90;;;;;;4477888;26;20018;-67
2024/04/14 01:35:10;;;;;;;2.25;1.08;;;17.00;99.90;;;;;;4475972;26;20627;-67
2024/04/14 01:37:11;;;;;;;2.58;1.10;;;17.00;99.90;;;;;;4453346;26;20022;-67
2024/04/14 01:39:11;;;;;;;2.33;1.30;;;17.00;99.90;;;;;;4467572;26;20012;-65
2024/04/14 01:41:12;;;;;;;1.95;0.98;;;17.00;99.90;;;;;;4465543;26;20116;-65
2024/04/14 01:43:13;;;;;;;4.53;1.45;;;17.00;99.90;;;;;;4477100;26;20035;-65
2024/04/14 01:45:15;;;;;;;1.42;1.15;;;17.00;99.90;;;;;;4470053;26;20012;-65
2024/04/14 01:47:17;;;;;;;3.42;1.30;;;16.90;99.90;;;;;;4478369;26;20019;-66
2024/04/14 01:49:17;;;;;;;3.65;1.17;;;16.90;99.90;;;;;;4474434;26;20004;-65
2024/04/14 01:51:18;;;;;;;1.92;1.00;;;16.90;99.90;;;;;;4464999;26;20522;-65
2024/04/14 01:53:19;;;;;;;2.63;1.17;;;16.90;99.90;;;;;;4470195;26;20015;-66
2024/04/14 01:55:19;;;;;;;2.28;1.20;;;16.90;99.90;;;;;;4469757;26;20476;-66
2024/04/14 01:57:20;;;;;;;2.28;1.27;;;16.80;99.90;;;;;;4475731;26;20472;-66
2024/04/14 01:59:20;;;;;;;2.08;1.33;;;16.80;99.90;;;;;;4472237;26;20047;-66
2024/04/14 02:01:22;;;;;;;3.42;1.35;;;16.90;99.90;;;;;;4477400;26;20048;-66
2024/04/14 02:03:23;;;;;;;3.33;1.33;;;16.80;99.90;;;;;;4459961;26;20012;-66
2024/04/14 02:05:23;;;;;;;7.93;1.80;;;16.80;99.90;;;;;;4463166;26;20008;-66
2024/04/14 02:07:24;;;;;;;3.50;1.20;;;16.80;99.90;;;;;;4474429;26;20015;-66
2024/04/14 02:09:25;;;;;;;2.80;1.27;;;16.80;99.90;;;;;;4467243;26;20077;-66
2024/04/14 02:11:25;;;;;;;4.38;1.50;;;16.80;99.90;;;;;;4467799;26;20141;-66
2024/04/14 02:13:27;;;;;;;2.53;1.30;;;16.70;99.90;;;;;;4469499;26;20093;-65
2024/04/14 02:15:27;;;;;;;4.13;1.48;;;16.70;99.90;;;;;;4476462;26;20007;-66
2024/04/14 02:17:28;;;;;;;2.78;1.30;;;16.70;99.90;;;;;;4476508;26;20000;-66
2024/04/14 02:19:29;;;;;;;4.85;1.67;;;16.70;99.90;;;;;;4475780;26;20004;-66
2024/04/14 02:21:29;;;;;;;3.85;1.63;;;16.60;99.90;;;;;;4429534;26;20393;-66
2024/04/14 02:23:30;;;;;;;2.33;1.40;;;16.60;99.90;;;;;;4451139;26;20031;-66
2024/04/14 02:25:31;;;;;;;2.22;1.40;;;16.60;99.90;;;;;;4473984;26;19999;-66
2024/04/14 02:27:31;;;;;;;2.95;1.15;;;16.60;99.90;;;;;;4433335;26;20024;-66
2024/04/14 02:29:32;;;;;;;2.22;1.35;;;16.60;99.90;;;;;;4469155;26;20103;-65
2024/04/14 02:31:32;;;;;;;3.63;1.65;;;16.60;99.90;;;;;;4472227;26;20080;-66
2024/04/14 02:33:33;;;;;;;2.17;1.40;;;16.60;99.90;;;;;;4463200;26;20000;-66
2024/04/14 02:35:34;;;;;;;4.45;1.60;;;16.60;99.90;;;;;;4464431;26;20005;-66
2024/04/14 02:37:34;;;;;;;3.88;1.70;;;16.60;99.90;;;;;;4475359;26;20352;-65
2024/04/14 02:39:35;;;;;;;3.25;1.58;;;16.60;99.90;;;;;;4475100;26;20019;-66
2024/04/14 02:41:37;;;;;;;3.67;1.45;;;16.40;99.90;;;;;;4468858;26;20014;-66
2024/04/14 02:43:39;;;;;;;6.40;1.73;;;16.40;99.90;;;;;;4477392;26;20026;-66
2024/04/14 02:45:40;;;;;;;4.88;1.45;;;16.40;99.90;;;;;;4474764;26;20023;-66
2024/04/14 02:47:40;;;;;;;2.83;1.55;;;16.40;99.90;;;;;;4460590;26;20016;-63
2024/04/14 02:49:41;;;;;;;4.55;1.45;;;16.40;99.90;;;;;;4474231;26;20019;-58
2024/04/14 02:51:43;;;;;;;3.42;1.52;;;16.40;99.90;;;;;;4476051;26;20460;-59
2024/04/14 02:53:44;;;;;;;6.78;2.53;;;16.30;99.90;;;;;;4476566;26;20003;-58
2024/04/14 02:55:45;;;;;;;4.03;1.73;;;16.20;99.90;;;;;;4439020;26;20008;-58
2024/04/14 02:57:46;;;;;;;3.33;1.40;;;16.30;99.90;;;;;;4475185;26;20471;-59
2024/04/14 02:59:46;;;;;;;5.03;1.17;;;16.30;99.90;;;;;;4474478;26;20043;-59
2024/04/14 03:01:47;;;;;;;4.60;1.70;;;16.20;99.90;;;;;;4463075;26;20468;-59
2024/04/14 03:03:48;;;;;;;2.80;1.50;;;16.20;99.90;;;;;;4463611;26;20008;-58
2024/04/14 03:05:58;;;;;;;3.55;1.52;;;16.30;99.90;;;;;;4442671;26;20044;-59
2024/04/14 03:07:59;;;;;;;4.88;1.88;;;16.30;99.90;;;;;;4465532;26;20028;-59
2024/04/14 03:09:59;;;;;;;3.85;1.60;;;16.20;99.90;;;;;;4458274;26;20004;-58
2024/04/14 03:12:02;;;;;;;4.22;1.80;;;16.20;99.90;;;;;;4449367;26;20056;-59
2024/04/14 03:14:03;;;;;;;5.93;1.90;;;16.20;99.90;;;;;;4471646;26;20015;-59
2024/04/14 03:16:04;;;;;;;2.90;1.55;;;16.30;99.90;;;;;;4454081;26;20016;-59
2024/04/14 03:18:05;;;;;;;3.45;1.50;;;16.30;99.90;;;;;;4440165;26;20005;-59
2024/04/14 03:20:06;;;;;;;4.35;1.40;;;16.30;99.90;;;;;;4458521;26;20478;-60
2024/04/14 03:22:07;;;;;;;4.53;1.50;;;16.30;99.90;;;;;;4454884;26;20008;-59
2024/04/14 03:24:07;;;;;;;3.00;1.45;;;16.20;99.90;;;;;;4450852;26;20457;-59
2024/04/14 03:26:08;;;;;;;5.45;2.00;;;16.30;99.90;;;;;;4476636;26;20019;-59
2024/04/14 03:28:08;;;;;;;4.28;1.50;;;16.20;99.90;;;;;;4472072;26;20019;-59
2024/04/14 03:30:09;;;;;;;3.60;1.58;;;16.20;99.90;;;;;;4468017;26;20014;-60
2024/04/14 03:32:10;;;;;;;6.70;1.55;;;16.20;99.90;;;;;;4476656;26;20567;-58
2024/04/14 03:34:11;;;;;;;3.20;1.50;;;16.20;99.90;;;;;;4462171;26;20033;-59
2024/04/14 03:36:12;;;;;;;3.35;1.35;;;16.10;99.90;;;;;;4474246;26;20008;-59
2024/04/14 03:38:12;;;;;;;3.47;1.65;;;16.10;99.90;;;;;;4458745;26;20026;-58
2024/04/14 03:40:13;;;;;;;3.08;1.38;;;16.20;99.90;;;;;;4453632;26;20967;-59
2024/04/14 03:42:13;;;;;;;4.28;1.77;;;16.10;99.90;;;;;;4475313;26;20018;-59
2024/04/14 03:44:14;;;;;;;3.83;1.40;;;16.20;99.90;;;;;;4448838;26;19997;-59
2024/04/14 03:46:15;;;;;;;3.60;1.60;;;16.10;99.90;;;;;;4455034;26;20087;-59
2024/04/14 03:48:15;;;;;;;4.22;1.77;;;16.20;99.90;;;;;;4458967;26;20007;-58
2024/04/14 03:50:16;;;;;;;4.05;1.70;;;16.10;99.90;;;;;;4458212;26;20338;-59
2024/04/14 03:52:17;;;;;;;4.30;1.90;;;16.10;99.90;;;;;;4429056;26;20032;-59
2024/04/14 03:54:17;;;;;;;4.50;1.65;;;16.10;99.90;;;;;;4442456;26;20008;-59
2024/04/14 03:56:18;;;;;;;5.75;1.92;;;16.10;99.90;;;;;;4458754;26;20015;-59
2024/04/14 03:58:19;;;;;;;5.78;1.73;;;16.10;99.90;;;;;;4446300;26;20026;-62
2024/04/14 04:00:19;;;;;;;3.47;1.48;;;16.10;99.90;;;;;;4446390;26;20020;-66
2024/04/14 04:02:20;;;;;;;4.25;1.75;;;16.00;99.90;;;;;;4439399;26;20016;-66
2024/04/14 04:04:20;;;;;;;6.38;2.13;;;16.10;99.90;;;;;;4457303;26;20349;-66
2024/04/14 04:06:21;;;;;;;5.15;1.88;;;16.10;99.90;;;;;;4458565;26;20130;-66
2024/04/14 04:08:25;;;;;;;6.55;1.92;;;16.10;99.90;;;;;;4455404;26;20072;-66
2024/04/14 04:10:25;;;;;;;3.92;1.48;;;16.10;99.90;;;;;;4457417;26;20069;-66
2024/04/14 04:12:26;;;;;;;5.50;2.00;;;16.10;99.90;;;;;;4471399;26;20009;-66
2024/04/14 04:14:27;;;;;;;4.25;2.05;;;16.10;99.90;;;;;;4440535;26;20488;-66
2024/04/14 04:16:27;;;;;;;4.43;1.65;;;16.10;99.90;;;;;;4434528;26;20077;-66
2024/04/14 04:18:28;;;;;;;6.90;2.10;;;16.00;99.90;;;;;;4421503;26;20013;-66
2024/04/14 04:20:28;;;;;;;4.15;2.10;;;16.00;99.90;;;;;;4429488;26;20011;-66
2024/04/14 04:22:29;;;;;;;5.47;2.20;;;16.00;99.90;;;;;;4441398;26;19996;-66
2024/04/14 04:24:30;;;;;;;7.50;2.55;;;15.90;99.90;;;;;;4445032;26;20478;-66
2024/04/14 04:26:30;;;;;;;6.40;2.15;;;16.00;99.90;;;;;;4423319;26;20000;-66
2024/04/14 04:28:31;;;;;;;6.63;1.85;;;15.90;99.90;;;;;;4422954;26;20004;-65
2024/04/14 04:30:31;;;;;;;5.05;1.95;;;15.90;99.90;;;;;;4416520;26;20005;-66
2024/04/14 04:32:32;;;;;;;8.63;2.08;;;15.90;99.90;;;;;;4438410;26;20012;-66
2024/04/14 04:34:32;;;;;;;6.30;2.20;;;15.90;99.90;;;;;;4410649;26;20001;-66
2024/04/14 04:36:33;;;;;;;2.80;1.45;;;15.90;99.90;;;;;;4433218;26;20005;-66
2024/04/14 04:38:34;;;;;;;4.47;2.20;;;15.80;99.90;;;;;;4407556;26;20466;-66
2024/04/14 04:40:34;;;;;;;9.05;2.60;;;15.80;99.90;;;;;;4414887;26;20004;-64
2024/04/14 04:42:35;;;;;;;6.63;2.40;;;15.70;99.90;;;;;;4427529;26;20012;-66
2024/04/14 04:44:35;;;;;;;4.35;1.70;;;15.70;99.90;;;;;;4441338;26;20414;-66
2024/04/14 04:46:36;;;;;;;4.85;2.30;;;15.80;99.90;;;;;;4430535;26;20140;-65
2024/04/14 04:48:38;;;;;;;6.25;2.28;;;15.80;99.90;;;;;;4424006;26;20078;-66
2024/04/14 04:50:39;;;;;;;5.68;2.08;;;15.70;99.90;;;;;;4438784;26;20013;-66
2024/04/14 04:52:39;;;;;;;6.25;2.20;;;15.70;99.90;;;;;;4449841;26;20024;-66
2024/04/14 04:54:40;;;;;;;8.98;2.40;;;15.70;99.90;;;;;;4440340;26;20380;-66
2024/04/14 04:56:40;;;;;;;5.35;1.80;;;15.60;99.90;;;;;;4424272;26;20024;-66
2024/04/14 04:58:41;;;;;;;5.68;2.28;;;15.60;99.90;;;;;;4438065;26;20032;-65
2024/04/14 05:00:53;;;;;;;8.77;3.15;;;15.60;99.90;;;;;;4410128;26;20006;-66
2024/04/14 05:02:53;;;;;;;6.68;2.40;;;15.50;99.90;;;;;;4399426;26;20013;-66
2024/04/14 05:04:54;;;;;;;3.53;2.13;;;15.60;99.90;;;;;;4409015;26;20372;-66
2024/04/14 05:06:54;;;;;;;5.75;2.13;;;15.60;99.90;;;;;;4424658;26;20021;-66
2024/04/14 05:08:55;;;;;;;4.75;2.28;;;15.60;99.90;;;;;;4416976;26;20398;-68
2024/04/14 05:10:57;;;;;;;5.15;1.83;;;15.60;99.90;;;;;;4426517;26;20004;-68
2024/04/14 05:12:57;;;;;;;10.10;2.85;;;15.60;99.90;;;;;;4423566;26;20001;-68
2024/04/14 05:14:58;;;;;;;4.68;2.22;;;15.50;99.90;;;;;;4458952;26;20456;-68
2024/04/14 05:16:59;;;;;;;6.38;2.85;;;15.50;99.90;;;;;;4447313;26;20048;-68
2024/04/14 05:18:59;;;;;;;5.72;2.35;;;15.50;99.90;;;;;;4443999;26;20019;-68
2024/04/14 05:21:00;;;;;;;6.07;2.58;;;15.50;99.90;;;;;;4443307;26;20008;-68
2024/04/14 05:23:01;;;;;;;9.40;2.92;;;15.50;99.90;;;;;;4445748;26;20464;-68
2024/04/14 05:25:01;;;;;;;7.07;2.92;;;15.50;99.90;;;;;;4467042;26;20018;-69
2024/04/14 05:27:03;;;;;;;8.02;2.75;;;15.40;99.90;;;;;;4444209;26;20031;-68
2024/04/14 05:29:04;;;;;;;5.68;2.60;;;15.40;99.90;;;;;;4445328;26;20346;-68
2024/04/14 05:31:04;;;;;;;5.45;2.58;;;15.40;99.90;;;;;;4422702;26;20025;-68
2024/04/14 05:33:05;;;;;;;7.13;2.40;;;15.50;99.90;;;;;;4447642;26;20019;-68
2024/04/14 05:35:06;;;;;;;3.53;2.17;;;15.50;99.90;;;;;;4412623;26;19997;-67
2024/04/14 05:37:07;;;;;;;6.13;1.92;;;15.50;99.90;;;;;;4465517;26;20069;-67
2024/04/14 05:39:07;;;;;;;7.70;2.58;;;15.50;99.90;;;;;;4460053;26;20031;-67
2024/04/14 05:41:08;;;;;;;15.85;2.90;;;15.50;99.90;;;;;;4442049;26;20056;-68
2024/04/14 05:43:09;;;;;;;5.00;2.60;;;15.50;99.90;;;;;;4410741;26;20385;-67
2024/04/14 05:45:10;;;;;;;7.40;2.75;;;15.40;99.90;;;;;;4440242;26;20004;-69
2024/04/14 05:47:10;;;;;;;5.18;2.28;;;15.50;99.90;;;;;;4448486;26;19999;-68
2024/04/14 05:49:12;;;;;;;5.53;2.42;;;15.50;99.90;;;;;;4429606;26;20352;-68
2024/04/14 05:51:13;;;;;;;6.53;2.35;;;15.50;99.90;;;;;;4451635;26;20004;-68
2024/04/14 05:53:14;;;;;;;5.60;2.20;;;15.50;99.90;;;;;;4482505;26;20003;-67
2024/04/14 05:55:14;;;;;;;7.90;2.75;;;15.50;99.90;;;;;;4441665;26;20036;-67
2024/04/14 05:57:15;;;;;;;8.95;2.83;;;15.50;99.90;;;;;;4438943;26;20032;-66
2024/04/14 05:59:16;;;;;;;4.40;2.13;;;15.50;99.90;;;;;;4465738;26;20000;-71
2024/04/14 06:01:16;;;;;;;7.25;3.17;;;15.50;99.90;;;;;;4444360;26;20068;-72
2024/04/14 06:03:17;;;;;;;5.57;2.53;;;15.50;99.90;;;;;;4434621;26;20012;-72
2024/04/14 06:05:17;;;;;;;5.38;2.47;;;15.50;99.90;;;;;;4441820;26;19999;-70
2024/04/14 06:07:18;;;;;;;5.43;2.60;;;15.50;99.90;;;;;;4419591;26;20023;-72
2024/04/14 06:09:21;;;;;;;8.18;2.75;;;15.60;99.90;;;;;;4440709;26;20022;-71
2024/04/14 06:11:22;;;;;;;5.95;2.72;;;15.50;99.90;;;;;;4424253;26;20012;-71
2024/04/14 06:13:23;;;;;;;9.82;3.03;;;15.60;99.90;;;;;;4446439;26;20081;-72
2024/04/14 06:15:24;;;;;;;6.72;2.70;;;15.50;99.90;;;;;;4416323;26;20017;-72
2024/04/14 06:17:25;;;;;;;7.93;2.55;;;15.60;99.90;;;;;;4438652;26;20011;-72
2024/04/14 06:19:25;;;;;;;8.50;2.78;;;15.50;99.90;;;;;;4446578;26;20032;-72
2024/04/14 06:21:26;;;;;;;9.95;2.92;;;15.50;99.90;;;;;;4443716;26;20012;-72
2024/04/14 06:23:27;;;;;;;9.90;3.30;;;15.50;99.90;;;;;;4447794;26;20016;-72
2024/04/14 06:25:27;;;;;;;6.65;2.80;;;15.50;99.90;;;;;;4447294;26;20016;-72
2024/04/14 06:27:28;;;;;;;8.80;3.13;;;15.50;99.90;;;;;;4440244;26;20017;-72
2024/04/14 06:29:28;;;;;;;10.10;3.10;;;15.50;99.90;;;;;;4446546;26;20407;-72
2024/04/14 06:31:29;;;;;;;7.47;2.90;;;15.50;99.90;;;;;;4434508;26;20008;-72
2024/04/14 06:33:30;;;;;;;10.07;2.97;;;15.50;99.90;;;;;;4444277;26;20094;-72
2024/04/14 06:35:30;;;;;;;6.47;2.88;;;15.50;99.90;;;;;;4446951;26;20403;-72
2024/04/14 06:37:31;;;;;;;7.32;2.63;;;15.60;99.90;;;;;;4452315;26;20093;-72
2024/04/14 06:39:32;;;;;;;14.00;3.78;;;15.60;99.90;;;;;;4450158;26;20110;-72
2024/04/14 06:41:32;;;;;;;12.48;4.05;;;15.60;99.90;;;;;;4439597;26;20492;-72
2024/04/14 06:43:33;;;;;;;8.25;2.78;;;15.50;99.90;;;;;;4451208;26;20004;-72
2024/04/14 06:45:34;;;;;;;11.48;3.30;;;15.50;99.90;;;;;;4448116;26;20035;-72
2024/04/14 06:47:35;;;;;;;11.50;3.80;;;15.50;99.90;;;;;;4458969;26;20022;-72
2024/04/14 06:49:35;;;;;;;13.82;3.45;;;15.40;99.90;;;;;;4449846;26;20030;-72
2024/04/14 06:51:36;;;;;;;11.77;3.53;;;15.40;99.90;;;;;;4448516;26;20093;-72
2024/04/14 06:53:37;;;;;;;15.10;4.05;;;15.40;99.90;;;;;;4444251;26;21576;-72
2024/04/14 06:55:37;;;;;;;11.60;3.90;;;15.40;99.90;;;;;;4447637;26;20025;-72
2024/04/14 06:57:39;;;;;;;10.38;3.17;;;15.40;99.90;;;;;;4446233;26;20415;-73
2024/04/14 06:59:39;;;;;;;9.57;3.10;;;15.40;99.90;;;;;;4447820;26;20016;-72
2024/04/14 07:01:40;;;;;;;12.25;3.33;;;15.30;99.90;;;;;;4445921;26;20081;-72
2024/04/14 07:03:41;;;;;;;7.95;3.00;;;15.30;99.90;;;;;;4448612;26;20016;-72
2024/04/14 07:05:42;;;;;;;9.52;3.17;;;15.40;99.90;;;;;;4454688;26;20097;-73
2024/04/14 07:07:43;;;;;;;7.35;2.83;;;15.40;99.90;;;;;;4443924;26;20004;-72
2024/04/14 07:09:43;;;;;;;10.10;3.38;;;15.50;99.90;;;;;;4453397;26;20012;-72
2024/04/14 07:11:45;;;;;;;8.07;2.92;;;15.70;99.90;;;;;;4436336;26;20027;-73
2024/04/14 07:13:46;;;;;;;6.82;2.72;;;15.70;99.90;;;;;;4467473;26;20463;-71
2024/04/14 07:15:46;;;;;;;12.05;3.35;;;15.80;99.90;;;;;;4471931;26;20035;-72
2024/04/14 07:17:47;;;;;;;9.07;3.00;;;15.90;99.90;;;;;;4471355;26;20023;-71
2024/04/14 07:19:47;;;;;;;9.35;3.30;;;16.10;99.90;;;;;;4488122;26;20013;-73
2024/04/14 07:21:48;;;;;;;12.02;2.90;;;16.20;99.90;;;;;;4480586;26;20020;-67
2024/04/14 07:23:48;;;;;;;9.52;2.88;;;16.20;99.90;;;;;;4420611;26;20499;-71
2024/04/14 07:25:49;;;;;;;6.97;2.80;;;16.40;99.90;;;;;;4473238;26;20004;-72
2024/04/14 07:27:50;;;;;;;9.32;2.58;;;16.50;99.90;;;;;;4472848;26;20043;-59
2024/04/14 07:29:51;;;;;;;14.13;3.13;;;16.40;99.90;;;;;;4479207;26;20014;-63
2024/04/14 07:31:51;;;;;;;10.00;2.85;;;16.50;99.90;;;;;;4479908;26;20022;-63
2024/04/14 07:34:03;;;;;;;5.95;2.40;;;16.50;99.90;;;;;;4463463;26;20004;-62
2024/04/14 07:36:04;;;;;;;7.20;2.53;;;16.60;99.90;;;;;;4479307;26;20007;-63
2024/04/14 07:38:05;;;;;;;10.20;3.08;;;16.60;99.90;;;;;;4481740;26;21038;-63
2024/04/14 07:40:06;;;;;;;7.45;3.08;;;16.60;99.90;;;;;;4480749;26;20007;-64
2024/04/14 07:42:08;;;;;;;10.52;3.13;;;16.60;99.90;;;;;;4435077;26;20023;-63
2024/04/14 07:44:08;;;;;;;9.77;2.90;;;16.60;99.90;;;;;;4417334;26;20432;-63
2024/04/14 07:46:09;;;;;;;10.95;3.13;;;16.60;99.90;;;;;;4478673;26;20015;-62
2024/04/14 07:48:10;;;;;;;11.18;3.35;;;16.60;99.90;;;;;;4463530;26;20009;-63
2024/04/14 07:50:10;;;;;;;14.07;3.17;;;16.50;99.90;;;;;;4464583;26;20012;-63
2024/04/14 07:52:11;;;;;;;9.98;2.50;;;16.50;99.90;;;;;;4441440;26;20062;-62
2024/04/14 07:54:11;;;;;;;11.13;2.63;;;16.50;99.90;;;;;;4471224;26;20352;-63
2024/04/14 07:56:12;;;;;;;7.38;2.65;;;16.60;99.90;;;;;;4466963;26;20012;-63
2024/04/14 07:58:13;;;;;;;8.30;2.40;;;16.60;99.90;;;;;;4420569;26;20136;-63
2024/04/14 08:00:13;;;;;;;10.02;2.80;;;16.70;99.90;;;;;;4478001;26;20057;-64
2024/04/14 08:02:14;;;;;;;9.43;2.33;;;16.70;99.90;;;;;;4470674;26;20004;-63
2024/04/14 08:04:15;;;;;;;7.93;2.60;;;16.70;99.90;;;;;;4477604;26;20031;-63
2024/04/14 08:06:16;;;;;;;12.63;2.53;;;16.70;99.90;;;;;;4437530;26;20489;-64
2024/04/14 08:08:16;;;;;;;5.30;2.20;;;16.70;99.90;;;;;;4445283;26;20028;-63
2024/04/14 08:10:17;;;;;;;7.53;2.22;;;16.70;99.90;;;;;;4448644;26;20003;-63
2024/04/14 08:12:18;;;;;;;7.25;2.45;;;16.70;99.90;;;;;;4460116;26;20352;-63
2024/04/14 08:14:18;;;;;;;7.20;2.10;;;16.80;99.90;;;;;;4448085;26;20016;-63
2024/04/14 08:16:19;;;;;;;7.47;2.20;;;16.90;99.90;;;;;;4450970;26;20387;-64
2024/04/14 08:18:23;;;;;;;9.35;2.58;;;17.00;99.90;;;;;;4481721;26;19999;-64
2024/04/14 08:20:26;;;;;;;5.35;2.08;;;17.00;99.90;;;;;;4484585;26;20016;-62
2024/04/14 08:22:26;;;;;;;9.23;2.65;;;17.00;99.90;;;;;;4499871;26;20003;-63
2024/04/14 08:24:27;;;;;;;6.82;2.10;;;17.10;99.90;;;;;;4468357;26;20008;-63
2024/04/14 08:26:27;;;;;;;8.48;2.08;;;17.20;99.90;;;;;;4477646;26;20080;-63
2024/04/14 08:28:28;;;;;;;6.20;1.92;;;17.20;99.90;;;;;;4479926;26;20449;-63
2024/04/14 08:30:29;;;;;;;8.60;2.53;;;17.30;99.90;;;;;;4456390;26;20007;-62
2024/04/14 08:32:29;;;;;;;6.05;2.25;;;17.40;99.90;;;;;;4463913;26;20022;-63
2024/04/14 08:34:30;;;;;;;4.63;1.58;;;17.40;99.90;;;;;;4475224;26;20008;-63
2024/04/14 08:36:31;;;;;;;6.18;1.92;;;17.60;99.90;;;;;;4444105;26;20128;-62
2024/04/14 08:38:32;;;;;;;7.43;1.88;;;17.70;99.90;;;;;;4449653;26;20031;-63
2024/04/14 08:40:32;;;;;;;6.05;1.85;;;17.80;99.90;;;;;;4478999;26;20104;-63
2024/04/14 08:42:33;;;;;;;5.32;1.65;;;17.80;99.90;;;;;;4479346;26;20004;-63
2024/04/14 08:44:36;;;;;;;8.05;2.15;;;17.90;99.90;;;;;;4483642;26;20013;-63
2024/04/14 08:46:37;;;;;;;3.90;1.58;;;17.90;99.90;;;;;;4473690;26;20522;-63
2024/04/14 08:48:38;;;;;;;5.78;1.80;;;17.90;99.90;;;;;;4483829;26;20018;-63
2024/04/14 08:50:39;;;;;;;6.90;1.65;;;18.00;99.90;;;;;;4445009;26;20027;-63
2024/04/14 08:52:41;;;;;;;8.68;2.50;;;17.90;99.90;;;;;;4454250;26;20033;-63
2024/04/14 08:54:42;;;;;;;5.78;1.58;;;17.80;99.90;;;;;;4478544;26;20031;-63
2024/04/14 08:56:43;;;;;;;13.25;2.35;;;17.90;99.90;;;;;;4471295;26;20008;-63
2024/04/14 08:58:45;;;;;;;10.38;2.63;;;18.00;99.90;;;;;;4489631;26;20003;-63
2024/04/14 09:00:50;;;;;;;7.15;1.90;;;17.90;99.90;;;;;;4482052;26;20018;-64
2024/04/14 09:02:51;;;;;;;6.07;1.73;;;17.90;99.90;;;;;;4446297;26;20325;-63
2024/04/14 09:04:52;;;;;;;9.25;2.42;;;18.00;99.90;;;;;;4447909;26;20052;-63
2024/04/14 09:06:53;;;;;;;4.93;1.50;;;17.90;99.90;;;;;;4470180;26;20043;-64
2024/04/14 09:08:53;;;;;;;5.30;1.70;;;17.90;99.90;;;;;;4468913;26;20015;-64
2024/04/14 09:10:54;;;;;;;8.85;2.35;;;17.80;99.90;;;;;;4466288;26;20546;-64
2024/04/14 09:12:55;;;;;;;5.30;1.65;;;17.90;99.90;;;;;;4475678;26;20373;-63
2024/04/14 09:14:56;;;;;;;8.30;2.28;;;17.90;99.90;;;;;;4475332;26;20007;-63
2024/04/14 09:16:57;;;;;;;5.55;1.73;;;17.90;99.90;;;;;;4457207;26;20196;-63
2024/04/14 09:18:57;;;;;;;4.97;1.52;;;18.00;99.90;;;;;;4459556;26;20010;-62
2024/04/14 09:21:01;;;;;;;7.55;1.77;;;18.10;99.90;;;;;;4444505;26;20086;-64
2024/04/14 09:23:02;;;;;;;8.30;2.28;;;18.10;99.90;;;;;;4447515;26;20018;-63
2024/04/14 09:25:06;;;;;;;5.90;1.88;;;18.20;99.90;;;;;;4464105;26;20004;-64
2024/04/14 09:27:07;;;;;;;6.65;2.08;;;18.20;99.90;;;;;;4448185;26;20004;-63
2024/04/14 09:29:08;;;;;;;4.25;1.50;;;18.20;99.90;;;;;;4450085;26;20022;-64
2024/04/14 09:31:09;;;;;;;12.90;2.70;;;18.20;99.90;;;;;;4452841;26;19996;-63
2024/04/14 09:33:11;;;;;;;7.53;1.70;;;18.20;99.90;;;;;;4460314;26;20001;-63
2024/04/14 09:35:12;;;;;;;6.45;1.40;;;18.30;99.90;;;;;;4479061;26;20010;-63
2024/04/14 09:37:14;;;;;;;4.70;1.25;;;18.30;99.90;;;;;;4477550;26;20046;-63
2024/04/14 09:39:18;;;;;;;6.30;1.23;;;18.30;99.90;;;;;;4477780;26;20422;-63
2024/04/14 09:41:21;;;;;;;4.30;1.27;;;18.40;99.90;;;;;;4462371;26;20468;-63
2024/04/14 09:43:22;;;;;;;;;;;18.50;99.90;;;;;;4456729;26;19999;-63
2024/04/14 09:45:24;;;;;;;5.95;1.65;;;18.60;99.90;;;;;;4444499;26;20277;-63
2024/04/14 09:47:26;;;;;;;8.93;1.77;;;18.70;99.90;;;;;;4439107;26;20048;-63
2024/04/14 09:49:29;;;;;;;8.55;1.75;;;18.80;99.90;;;;;;4449987;26;20677;-63
2024/04/14 09:51:30;;;;;;;2.92;1.38;;;18.80;99.90;;;;;;4441925;26;20003;-62
2024/04/14 09:53:33;;;;;;;6.40;1.50;;;18.90;99.90;;;;;;4451391;26;20635;-62
2024/04/14 09:55:34;;;;;;;4.93;1.52;;;19.00;99.90;;;;;;4436577;26;20349;-62
2024/04/14 09:57:35;;;;;;;2.83;0.90;;;19.10;99.90;;;;;;4451692;26;20032;-62
2024/04/14 09:59:35;;;;;;;6.22;1.50;;;19.20;99.90;;;;;;4462145;26;20976;-62
2024/04/14 10:01:40;;;;;;;4.72;1.35;;;19.20;99.00;;;;;;4444766;26;20032;-64
2024/04/14 10:03:44;;;;;;;4.78;1.45;;;19.20;99.90;;;;;;4456256;26;20107;-62
2024/04/14 10:05:45;;;;;;;8.25;1.50;;;19.30;99.50;;;;;;4433900;26;20000;-62
2024/04/14 10:07:47;;;;;;;3.95;1.40;;;19.40;99.90;;;;;;4470978;26;20472;-62
2024/04/14 10:09:48;;;;;;;5.82;1.55;;;19.40;99.70;;;;;;4450411;26;20464;-62
2024/04/14 10:11:49;;;;;;;3.65;1.38;;;19.40;99.20;;;;;;4442356;26;20513;-63
2024/04/14 10:13:54;;;;;;;2.65;1.00;;;19.40;99.30;;;;;;4464461;26;20012;-62
2024/04/14 10:15:58;;;;;;;5.05;1.88;;;19.40;99.90;;;;;;4457133;26;25619;-62
2024/04/14 10:18:14;;;;;;;4.32;1.10;;;19.30;99.50;;;;;;4460563;26;20004;-62
2024/04/14 10:20:17;;;;;;;5.78;1.67;;;19.40;99.90;;;;;;4467838;26;20326;-62
2024/04/14 10:22:21;;;;;;;5.18;1.40;;;19.40;99.20;;;;;;4447824;26;20008;-62
2024/04/14 10:24:23;;;;;;;4.57;1.45;;;19.30;98.30;;;;;;4441358;26;20461;-62
2024/04/14 10:26:24;;;;;;;4.95;1.30;;;19.30;98.50;;;;;;4444187;26;20000;-62
2024/04/14 10:28:25;;;;;;;3.13;1.10;;;19.30;97.30;;;;;;4461147;26;20008;-62